EYPA/PLQ METAR and TAF weather

Enter ICAO airport designator
Station Type Date Time Source
EYPA METAR 2022/05/23 13:50 UTC NOAA

EYPA 231350Z 32004KT 250V040 CAVOK 14/03 Q1013


Station Type Date Time Source
EYPA Decoded METAR 2022/05/23 13:50 UTC NOAA

Palanga Intl., Lithuania (EYPA) 55-55-12N 021-03E
May 23, 2022 - 09:50 AM EDT / 2022.05.23 1350 UTC
Wind: from the NW (320 degrees) at 5 MPH (4 KT) (direction variable):0
Visibility: greater than 7 mile(s):0
Temperature: 57 F (14 C)
Dew Point: 37 F (3 C)
Relative Humidity: 47%
Pressure (altimeter): 29.91 in. Hg (1013 hPa)
ob: EYPA 231350Z 32004KT 250V040 CAVOK 14/03 Q1013
cycle: 14

Station Type Date Time Source
EYPA TAF 2022/05/23 12:03 UTC NOAA

TAF EYPA 231100Z 2312/2412 VRB05KT 9000 NSC PROB30
TEMPO 2322/2404 0600 FG VV002
TEMPO 2407/2412 15015KT

Example: see airport list